sensor_id;sensor_type;location;lat;lon;timestamp;temperature;humidity
21762;DHT22;11203;50.870;20.682;2022-08-19T00:01:41;19.60;93.50
21762;DHT22;11203;50.870;20.682;2022-08-19T00:04:10;19.50;76.20
21762;DHT22;11203;50.870;20.682;2022-08-19T00:06:39;19.50;40.90
21762;DHT22;11203;50.870;20.682;2022-08-19T00:09:10;19.60;25.80
21762;DHT22;11203;50.870;20.682;2022-08-19T00:11:38;19.60;12.60
21762;DHT22;11203;50.870;20.682;2022-08-19T00:14:06;19.50;21.50
21762;DHT22;11203;50.870;20.682;2022-08-19T00:16:36;19.50;8.70
21762;DHT22;11203;50.870;20.682;2022-08-19T00:19:05;19.50;39.70
21762;DHT22;11203;50.870;20.682;2022-08-19T00:21:31;19.40;76.20
21762;DHT22;11203;50.870;20.682;2022-08-19T00:23:57;19.40;94.50
21762;DHT22;11203;50.870;20.682;2022-08-19T00:26:27;19.40;99.90
21762;DHT22;11203;50.870;20.682;2022-08-19T00:28:54;19.40;99.90
21762;DHT22;11203;50.870;20.682;2022-08-19T00:31:21;19.40;99.90
21762;DHT22;11203;50.870;20.682;2022-08-19T00:33:47;19.40;99.90
21762;DHT22;11203;50.870;20.682;2022-08-19T00:36:16;19.40;99.90
21762;DHT22;11203;50.870;20.682;2022-08-19T00:38:42;19.40;99.90
21762;DHT22;11203;50.870;20.682;2022-08-19T00:41:13;19.40;99.90
21762;DHT22;11203;50.870;20.682;2022-08-19T00:43:41;19.40;99.90
21762;DHT22;11203;50.870;20.682;2022-08-19T00:46:07;19.40;99.90
21762;DHT22;11203;50.870;20.682;2022-08-19T00:48:34;19.40;99.90
21762;DHT22;11203;50.870;20.682;2022-08-19T00:51:01;19.30;99.90
21762;DHT22;11203;50.870;20.682;2022-08-19T00:53:28;19.30;99.90
21762;DHT22;11203;50.870;20.682;2022-08-19T00:55:58;19.30;99.90
21762;DHT22;11203;50.870;20.682;2022-08-19T00:58:29;19.30;99.90
21762;DHT22;11203;50.870;20.682;2022-08-19T01:00:56;19.20;99.90
21762;DHT22;11203;50.870;20.682;2022-08-19T01:03:22;19.20;99.90
21762;DHT22;11203;50.870;20.682;2022-08-19T01:05:50;19.20;99.90
21762;DHT22;11203;50.870;20.682;2022-08-19T01:08:18;19.20;99.90
21762;DHT22;11203;50.870;20.682;2022-08-19T01:10:50;19.20;99.90
21762;DHT22;11203;50.870;20.682;2022-08-19T01:13:21;19.20;99.90
21762;DHT22;11203;50.870;20.682;2022-08-19T01:15:56;19.20;99.90
21762;DHT22;11203;50.870;20.682;2022-08-19T01:18:27;19.20;99.90
21762;DHT22;11203;50.870;20.682;2022-08-19T01:20:57;19.20;99.90
21762;DHT22;11203;50.870;20.682;2022-08-19T01:23:26;19.20;99.90
21762;DHT22;11203;50.870;20.682;2022-08-19T01:26:22;19.20;99.90
21762;DHT22;11203;50.870;20.682;2022-08-19T01:28:51;19.20;99.90
21762;DHT22;11203;50.870;20.682;2022-08-19T01:31:22;19.20;99.90
21762;DHT22;11203;50.870;20.682;2022-08-19T01:33:53;19.20;99.90
21762;DHT22;11203;50.870;20.682;2022-08-19T01:36:36;19.20;99.90
21762;DHT22;11203;50.870;20.682;2022-08-19T01:39:10;19.20;99.90
21762;DHT22;11203;50.870;20.682;2022-08-19T01:41:38;19.20;99.90
21762;DHT22;11203;50.870;20.682;2022-08-19T01:44:05;19.10;99.90
21762;DHT22;11203;50.870;20.682;2022-08-19T01:46:32;19.10;99.90
21762;DHT22;11203;50.870;20.682;2022-08-19T01:48:59;19.10;99.90
21762;DHT22;11203;50.870;20.682;2022-08-19T01:51:26;19.10;99.90
21762;DHT22;11203;50.870;20.682;2022-08-19T01:53:53;19.10;99.90
21762;DHT22;11203;50.870;20.682;2022-08-19T01:56:20;19.10;99.90
21762;DHT22;11203;50.870;20.682;2022-08-19T01:58:53;19.10;99.90
21762;DHT22;11203;50.870;20.682;2022-08-19T02:01:21;19.10;99.90
21762;DHT22;11203;50.870;20.682;2022-08-19T02:03:47;19.10;99.90
21762;DHT22;11203;50.870;20.682;2022-08-19T02:06:13;19.10;99.90
21762;DHT22;11203;50.870;20.682;2022-08-19T02:08:41;19.10;99.90
21762;DHT22;11203;50.870;20.682;2022-08-19T02:11:07;19.10;99.90
21762;DHT22;11203;50.870;20.682;2022-08-19T02:13:34;19.10;99.90
21762;DHT22;11203;50.870;20.682;2022-08-19T02:16:00;19.10;99.90
21762;DHT22;11203;50.870;20.682;2022-08-19T02:18:26;19.10;99.90
21762;DHT22;11203;50.870;20.682;2022-08-19T02:20:52;19.10;99.90
21762;DHT22;11203;50.870;20.682;2022-08-19T02:23:18;19.00;99.90
21762;DHT22;11203;50.870;20.682;2022-08-19T02:25:47;19.10;99.90
21762;DHT22;11203;50.870;20.682;2022-08-19T02:28:13;19.00;99.90
21762;DHT22;11203;50.870;20.682;2022-08-19T02:30:41;19.00;99.90
21762;DHT22;11203;50.870;20.682;2022-08-19T02:33:07;19.00;99.90
21762;DHT22;11203;50.870;20.682;2022-08-19T02:35:33;19.00;99.90
21762;DHT22;11203;50.870;20.682;2022-08-19T02:38:00;19.00;99.90
21762;DHT22;11203;50.870;20.682;2022-08-19T02:40:49;19.00;99.90
21762;DHT22;11203;50.870;20.682;2022-08-19T02:43:17;18.90;99.90
21762;DHT22;11203;50.870;20.682;2022-08-19T02:45:43;18.90;99.90
21762;DHT22;11203;50.870;20.682;2022-08-19T02:48:09;18.90;99.90
21762;DHT22;11203;50.870;20.682;2022-08-19T02:50:39;18.90;99.90
21762;DHT22;11203;50.870;20.682;2022-08-19T02:53:06;18.90;99.90
21762;DHT22;11203;50.870;20.682;2022-08-19T02:55:33;18.90;99.90
21762;DHT22;11203;50.870;20.682;2022-08-19T02:58:00;18.90;99.90
21762;DHT22;11203;50.870;20.682;2022-08-19T03:00:26;19.00;99.90
21762;DHT22;11203;50.870;20.682;2022-08-19T03:02:53;19.00;99.90
21762;DHT22;11203;50.870;20.682;2022-08-19T03:05:19;19.00;99.90
21762;DHT22;11203;50.870;20.682;2022-08-19T03:07:45;19.00;99.90
21762;DHT22;11203;50.870;20.682;2022-08-19T03:10:12;19.00;99.90
21762;DHT22;11203;50.870;20.682;2022-08-19T03:12:39;19.00;99.90
21762;DHT22;11203;50.870;20.682;2022-08-19T03:15:06;19.00;99.90
21762;DHT22;11203;50.870;20.682;2022-08-19T03:17:34;19.00;99.90
21762;DHT22;11203;50.870;20.682;2022-08-19T03:20:00;19.00;99.90
21762;DHT22;11203;50.870;20.682;2022-08-19T03:22:26;19.00;99.90
21762;DHT22;11203;50.870;20.682;2022-08-19T03:24:52;19.00;99.90
21762;DHT22;11203;50.870;20.682;2022-08-19T03:27:19;19.00;99.90
21762;DHT22;11203;50.870;20.682;2022-08-19T03:29:45;19.10;99.90
21762;DHT22;11203;50.870;20.682;2022-08-19T03:32:11;19.10;99.90
21762;DHT22;11203;50.870;20.682;2022-08-19T03:34:38;19.10;99.90
21762;DHT22;11203;50.870;20.682;2022-08-19T03:37:08;19.10;99.90
21762;DHT22;11203;50.870;20.682;2022-08-19T03:39:38;19.10;99.90
21762;DHT22;11203;50.870;20.682;2022-08-19T03:42:05;19.10;99.90
21762;DHT22;11203;50.870;20.682;2022-08-19T03:44:31;19.10;99.90
21762;DHT22;11203;50.870;20.682;2022-08-19T03:47:03;19.20;99.90
21762;DHT22;11203;50.870;20.682;2022-08-19T03:49:31;19.20;99.90
21762;DHT22;11203;50.870;20.682;2022-08-19T03:51:59;19.20;99.90
21762;DHT22;11203;50.870;20.682;2022-08-19T03:54:30;19.30;99.90
21762;DHT22;11203;50.870;20.682;2022-08-19T03:56:56;19.30;99.90
21762;DHT22;11203;50.870;20.682;2022-08-19T03:59:26;19.30;99.90
21762;DHT22;11203;50.870;20.682;2022-08-19T04:01:55;19.40;99.90
21762;DHT22;11203;50.870;20.682;2022-08-19T04:04:23;19.40;99.90
21762;DHT22;11203;50.870;20.682;2022-08-19T04:06:51;19.50;99.90
21762;DHT22;11203;50.870;20.682;2022-08-19T04:09:17;19.50;99.90
21762;DHT22;11203;50.870;20.682;2022-08-19T04:11:50;19.60;99.90
21762;DHT22;11203;50.870;20.682;2022-08-19T04:14:22;19.60;99.90
21762;DHT22;11203;50.870;20.682;2022-08-19T04:16:50;19.70;99.90
21762;DHT22;11203;50.870;20.682;2022-08-19T04:19:18;19.70;99.90
21762;DHT22;11203;50.870;20.682;2022-08-19T04:21:48;19.80;99.90
21762;DHT22;11203;50.870;20.682;2022-08-19T04:24:17;19.80;99.40
21762;DHT22;11203;50.870;20.682;2022-08-19T04:26:44;19.90;65.20
21762;DHT22;11203;50.870;20.682;2022-08-19T04:29:13;19.90;59.50
21762;DHT22;11203;50.870;20.682;2022-08-19T04:31:43;19.90;56.50
21762;DHT22;11203;50.870;20.682;2022-08-19T04:34:12;20.00;70.80
21762;DHT22;11203;50.870;20.682;2022-08-19T04:36:42;20.00;66.90
21762;DHT22;11203;50.870;20.682;2022-08-19T04:39:13;20.00;72.80
21762;DHT22;11203;50.870;20.682;2022-08-19T04:41:41;20.00;64.90
21762;DHT22;11203;50.870;20.682;2022-08-19T04:44:26;20.10;45.00
21762;DHT22;11203;50.870;20.682;2022-08-19T04:46:56;20.10;14.70
21762;DHT22;11203;50.870;20.682;2022-08-19T04:49:23;20.20;31.80
21762;DHT22;11203;50.870;20.682;2022-08-19T04:51:51;20.20;24.10
21762;DHT22;11203;50.870;20.682;2022-08-19T04:54:21;20.30;1.00
21762;DHT22;11203;50.870;20.682;2022-08-19T04:56:51;20.40;1.00
21762;DHT22;11203;50.870;20.682;2022-08-19T04:59:20;20.50;1.00
21762;DHT22;11203;50.870;20.682;2022-08-19T05:01:47;20.50;1.00
21762;DHT22;11203;50.870;20.682;2022-08-19T05:04:16;20.60;1.00
21762;DHT22;11203;50.870;20.682;2022-08-19T05:06:45;20.70;1.00
21762;DHT22;11203;50.870;20.682;2022-08-19T05:09:13;20.80;1.00
21762;DHT22;11203;50.870;20.682;2022-08-19T05:11:40;20.90;1.00
21762;DHT22;11203;50.870;20.682;2022-08-19T05:14:07;21.00;1.00
21762;DHT22;11203;50.870;20.682;2022-08-19T05:16:34;21.00;99.90
21762;DHT22;11203;50.870;20.682;2022-08-19T05:19:00;21.10;1.00
21762;DHT22;11203;50.870;20.682;2022-08-19T05:21:46;21.10;99.90
21762;DHT22;11203;50.870;20.682;2022-08-19T05:24:30;21.20;99.90
21762;DHT22;11203;50.870;20.682;2022-08-19T05:27:00;21.30;99.90
21762;DHT22;11203;50.870;20.682;2022-08-19T05:29:29;21.40;1.00
21762;DHT22;11203;50.870;20.682;2022-08-19T05:31:58;21.50;1.00
21762;DHT22;11203;50.870;20.682;2022-08-19T05:34:26;21.60;1.00
21762;DHT22;11203;50.870;20.682;2022-08-19T05:36:57;21.60;99.90
21762;DHT22;11203;50.870;20.682;2022-08-19T05:39:27;21.70;99.90
21762;DHT22;11203;50.870;20.682;2022-08-19T05:42:02;21.80;1.00
21762;DHT22;11203;50.870;20.682;2022-08-19T05:44:33;21.90;1.00
21762;DHT22;11203;50.870;20.682;2022-08-19T05:47:02;21.90;1.00
21762;DHT22;11203;50.870;20.682;2022-08-19T05:49:31;22.00;99.90
21762;DHT22;11203;50.870;20.682;2022-08-19T05:51:58;22.10;99.90
21762;DHT22;11203;50.870;20.682;2022-08-19T05:54:25;22.20;1.00
21762;DHT22;11203;50.870;20.682;2022-08-19T05:56:52;22.30;1.00
21762;DHT22;11203;50.870;20.682;2022-08-19T05:59:20;22.40;1.00
21762;DHT22;11203;50.870;20.682;2022-08-19T06:01:48;22.40;99.90
21762;DHT22;11203;50.870;20.682;2022-08-19T06:04:18;22.50;99.90
21762;DHT22;11203;50.870;20.682;2022-08-19T06:06:49;22.60;1.00
21762;DHT22;11203;50.870;20.682;2022-08-19T06:09:21;22.60;1.00
21762;DHT22;11203;50.870;20.682;2022-08-19T06:11:50;22.70;1.00
21762;DHT22;11203;50.870;20.682;2022-08-19T06:14:26;22.80;1.00
21762;DHT22;11203;50.870;20.682;2022-08-19T06:16:54;22.90;99.90
21762;DHT22;11203;50.870;20.682;2022-08-19T06:19:22;22.90;99.90
21762;DHT22;11203;50.870;20.682;2022-08-19T06:21:51;22.90;99.90
21762;DHT22;11203;50.870;20.682;2022-08-19T06:24:21;23.10;2.30
21762;DHT22;11203;50.870;20.682;2022-08-19T06:26:51;23.10;1.00
21762;DHT22;11203;50.870;20.682;2022-08-19T06:29:20;23.20;1.00
21762;DHT22;11203;50.870;20.682;2022-08-19T06:31:50;23.40;1.00
21762;DHT22;11203;50.870;20.682;2022-08-19T06:34:22;23.50;99.90
21762;DHT22;11203;50.870;20.682;2022-08-19T06:36:51;23.60;99.90
21762;DHT22;11203;50.870;20.682;2022-08-19T06:39:20;23.60;99.90
21762;DHT22;11203;50.870;20.682;2022-08-19T06:41:50;23.70;1.00
21762;DHT22;11203;50.870;20.682;2022-08-19T06:44:19;23.80;1.00
21762;DHT22;11203;50.870;20.682;2022-08-19T06:46:47;23.80;1.00
21762;DHT22;11203;50.870;20.682;2022-08-19T06:49:14;24.00;1.00
21762;DHT22;11203;50.870;20.682;2022-08-19T06:51:43;24.00;1.00
21762;DHT22;11203;50.870;20.682;2022-08-19T06:54:10;24.10;1.00
21762;DHT22;11203;50.870;20.682;2022-08-19T06:56:37;24.20;99.90
21762;DHT22;11203;50.870;20.682;2022-08-19T06:59:09;24.40;99.90
21762;DHT22;11203;50.870;20.682;2022-08-19T07:01:46;24.40;99.90
21762;DHT22;11203;50.870;20.682;2022-08-19T07:04:16;24.50;98.90
21762;DHT22;11203;50.870;20.682;2022-08-19T07:06:44;24.60;99.90
21762;DHT22;11203;50.870;20.682;2022-08-19T07:09:14;24.70;99.90
21762;DHT22;11203;50.870;20.682;2022-08-19T07:11:46;24.80;35.50
21762;DHT22;11203;50.870;20.682;2022-08-19T07:14:14;25.00;1.00
21762;DHT22;11203;50.870;20.682;2022-08-19T07:16:44;25.00;1.00
21762;DHT22;11203;50.870;20.682;2022-08-19T07:19:11;25.10;1.00
21762;DHT22;11203;50.870;20.682;2022-08-19T07:21:38;25.30;1.00
21762;DHT22;11203;50.870;20.682;2022-08-19T07:24:04;25.40;1.00
21762;DHT22;11203;50.870;20.682;2022-08-19T07:26:39;25.60;1.00
21762;DHT22;11203;50.870;20.682;2022-08-19T07:29:06;25.60;99.90
21762;DHT22;11203;50.870;20.682;2022-08-19T07:31:33;25.70;99.90
21762;DHT22;11203;50.870;20.682;2022-08-19T07:34:09;25.90;99.90
21762;DHT22;11203;50.870;20.682;2022-08-19T07:36:39;26.00;31.00
21762;DHT22;11203;50.870;20.682;2022-08-19T07:39:18;26.10;1.00
21762;DHT22;11203;50.870;20.682;2022-08-19T07:41:46;26.20;1.00
21762;DHT22;11203;50.870;20.682;2022-08-19T07:44:14;26.40;1.00
21762;DHT22;11203;50.870;20.682;2022-08-19T07:46:46;26.40;1.00
21762;DHT22;11203;50.870;20.682;2022-08-19T07:49:16;26.50;99.90
21762;DHT22;11203;50.870;20.682;2022-08-19T07:51:51;26.50;99.90
21762;DHT22;11203;50.870;20.682;2022-08-19T07:54:19;26.70;99.90
21762;DHT22;11203;50.870;20.682;2022-08-19T07:56:46;26.70;99.90
21762;DHT22;11203;50.870;20.682;2022-08-19T07:59:12;26.90;99.90
21762;DHT22;11203;50.870;20.682;2022-08-19T08:01:39;26.90;99.90
21762;DHT22;11203;50.870;20.682;2022-08-19T08:04:06;27.00;99.90
21762;DHT22;11203;50.870;20.682;2022-08-19T08:06:52;27.10;1.00
21762;DHT22;11203;50.870;20.682;2022-08-19T08:09:39;27.10;1.00
21762;DHT22;11203;50.870;20.682;2022-08-19T08:12:09;27.20;1.00
21762;DHT22;11203;50.870;20.682;2022-08-19T08:14:50;27.20;1.00
21762;DHT22;11203;50.870;20.682;2022-08-19T08:17:21;27.30;1.00
21762;DHT22;11203;50.870;20.682;2022-08-19T08:19:49;27.30;1.00
21762;DHT22;11203;50.870;20.682;2022-08-19T08:22:18;27.50;1.00
21762;DHT22;11203;50.870;20.682;2022-08-19T08:25:06;27.50;1.00
21762;DHT22;11203;50.870;20.682;2022-08-19T08:27:39;27.70;1.00
21762;DHT22;11203;50.870;20.682;2022-08-19T08:30:08;27.60;1.00
21762;DHT22;11203;50.870;20.682;2022-08-19T08:32:37;27.60;1.00
21762;DHT22;11203;50.870;20.682;2022-08-19T08:35:05;27.80;1.00
21762;DHT22;11203;50.870;20.682;2022-08-19T08:37:33;27.90;1.00
21762;DHT22;11203;50.870;20.682;2022-08-19T08:40:03;28.00;1.00
21762;DHT22;11203;50.870;20.682;2022-08-19T08:42:35;28.00;99.90
21762;DHT22;11203;50.870;20.682;2022-08-19T08:45:08;28.20;99.90
21762;DHT22;11203;50.870;20.682;2022-08-19T08:47:43;28.20;99.90
21762;DHT22;11203;50.870;20.682;2022-08-19T08:50:20;28.30;99.90
21762;DHT22;11203;50.870;20.682;2022-08-19T08:52:52;28.40;99.90
21762;DHT22;11203;50.870;20.682;2022-08-19T08:55:24;28.50;99.90
21762;DHT22;11203;50.870;20.682;2022-08-19T09:00:28;28.70;99.90
21762;DHT22;11203;50.870;20.682;2022-08-19T09:02:58;28.70;99.90
21762;DHT22;11203;50.870;20.682;2022-08-19T09:05:40;28.80;99.90
21762;DHT22;11203;50.870;20.682;2022-08-19T09:08:49;28.80;99.90
21762;DHT22;11203;50.870;20.682;2022-08-19T09:17:23;29.10;99.90
21762;DHT22;11203;50.870;20.682;2022-08-19T09:22:35;29.20;25.10
21762;DHT22;11203;50.870;20.682;2022-08-19T09:25:03;29.20;27.00
21762;DHT22;11203;50.870;20.682;2022-08-19T09:27:31;29.30;27.20
21762;DHT22;11203;50.870;20.682;2022-08-19T09:29:58;29.30;1.00
21762;DHT22;11203;50.870;20.682;2022-08-19T09:32:24;29.40;1.00
21762;DHT22;11203;50.870;20.682;2022-08-19T09:34:51;29.50;1.00
21762;DHT22;11203;50.870;20.682;2022-08-19T09:37:20;29.50;1.00
21762;DHT22;11203;50.870;20.682;2022-08-19T09:39:47;29.50;1.00
21762;DHT22;11203;50.870;20.682;2022-08-19T09:42:13;29.50;1.00
21762;DHT22;11203;50.870;20.682;2022-08-19T09:44:41;29.50;1.00
21762;DHT22;11203;50.870;20.682;2022-08-19T09:47:08;29.50;1.00
21762;DHT22;11203;50.870;20.682;2022-08-19T09:49:35;29.60;1.00
21762;DHT22;11203;50.870;20.682;2022-08-19T09:52:01;29.70;1.00
21762;DHT22;11203;50.870;20.682;2022-08-19T09:54:28;29.60;1.00
21762;DHT22;11203;50.870;20.682;2022-08-19T09:56:55;29.70;1.00
21762;DHT22;11203;50.870;20.682;2022-08-19T09:59:21;29.70;1.00
21762;DHT22;11203;50.870;20.682;2022-08-19T10:01:47;29.80;1.00
21762;DHT22;11203;50.870;20.682;2022-08-19T10:04:13;29.90;1.00
21762;DHT22;11203;50.870;20.682;2022-08-19T10:06:40;29.90;1.00
21762;DHT22;11203;50.870;20.682;2022-08-19T10:09:09;30.00;1.00
21762;DHT22;11203;50.870;20.682;2022-08-19T10:11:39;30.10;1.00
21762;DHT22;11203;50.870;20.682;2022-08-19T10:14:06;30.10;1.00
21762;DHT22;11203;50.870;20.682;2022-08-19T10:16:33;30.20;1.00
21762;DHT22;11203;50.870;20.682;2022-08-19T10:19:00;30.20;1.00
21762;DHT22;11203;50.870;20.682;2022-08-19T10:21:29;30.20;1.00
21762;DHT22;11203;50.870;20.682;2022-08-19T10:23:58;30.20;1.00
21762;DHT22;11203;50.870;20.682;2022-08-19T10:26:34;30.30;1.00
21762;DHT22;11203;50.870;20.682;2022-08-19T10:29:03;30.30;1.00
21762;DHT22;11203;50.870;20.682;2022-08-19T10:31:32;30.40;1.00
21762;DHT22;11203;50.870;20.682;2022-08-19T10:34:00;30.50;1.00
21762;DHT22;11203;50.870;20.682;2022-08-19T10:36:32;30.60;1.00
21762;DHT22;11203;50.870;20.682;2022-08-19T10:39:05;30.60;1.00
21762;DHT22;11203;50.870;20.682;2022-08-19T10:41:35;30.50;1.00
21762;DHT22;11203;50.870;20.682;2022-08-19T10:44:06;30.60;1.00
21762;DHT22;11203;50.870;20.682;2022-08-19T10:46:36;30.70;1.00
21762;DHT22;11203;50.870;20.682;2022-08-19T10:49:05;30.60;1.00
21762;DHT22;11203;50.870;20.682;2022-08-19T10:51:31;30.70;1.00
21762;DHT22;11203;50.870;20.682;2022-08-19T10:54:17;30.70;1.00
21762;DHT22;11203;50.870;20.682;2022-08-19T10:56:43;30.70;1.00
21762;DHT22;11203;50.870;20.682;2022-08-19T10:59:27;30.80;1.00
21762;DHT22;11203;50.870;20.682;2022-08-19T11:01:59;30.90;1.00
21762;DHT22;11203;50.870;20.682;2022-08-19T11:04:26;30.90;1.00
21762;DHT22;11203;50.870;20.682;2022-08-19T11:06:52;30.90;1.00
21762;DHT22;11203;50.870;20.682;2022-08-19T11:09:21;30.90;1.00
21762;DHT22;11203;50.870;20.682;2022-08-19T11:11:52;30.90;1.00
21762;DHT22;11203;50.870;20.682;2022-08-19T11:14:20;31.00;1.00
21762;DHT22;11203;50.870;20.682;2022-08-19T11:16:50;31.00;1.00
21762;DHT22;11203;50.870;20.682;2022-08-19T11:19:17;31.10;1.00
21762;DHT22;11203;50.870;20.682;2022-08-19T11:21:47;31.10;1.00
21762;DHT22;11203;50.870;20.682;2022-08-19T11:24:17;31.10;1.00
21762;DHT22;11203;50.870;20.682;2022-08-19T11:26:46;31.10;1.00
21762;DHT22;11203;50.870;20.682;2022-08-19T11:29:19;31.10;1.00
21762;DHT22;11203;50.870;20.682;2022-08-19T11:31:49;31.20;1.00
21762;DHT22;11203;50.870;20.682;2022-08-19T11:34:19;31.10;1.00
21762;DHT22;11203;50.870;20.682;2022-08-19T11:36:48;31.10;1.00
21762;DHT22;11203;50.870;20.682;2022-08-19T11:39:17;31.10;1.00
21762;DHT22;11203;50.870;20.682;2022-08-19T11:41:45;31.00;1.00
21762;DHT22;11203;50.870;20.682;2022-08-19T11:44:12;31.00;1.00
21762;DHT22;11203;50.870;20.682;2022-08-19T11:46:42;31.00;1.00
21762;DHT22;11203;50.870;20.682;2022-08-19T11:49:13;31.10;1.00
21762;DHT22;11203;50.870;20.682;2022-08-19T11:51:40;31.10;1.00
21762;DHT22;11203;50.870;20.682;2022-08-19T11:54:09;31.10;1.00
21762;DHT22;11203;50.870;20.682;2022-08-19T11:56:37;31.20;1.00
21762;DHT22;11203;50.870;20.682;2022-08-19T11:59:03;31.20;1.00
21762;DHT22;11203;50.870;20.682;2022-08-19T12:01:30;31.30;1.00
21762;DHT22;11203;50.870;20.682;2022-08-19T12:03:57;31.30;1.00
21762;DHT22;11203;50.870;20.682;2022-08-19T12:06:26;31.40;1.00
21762;DHT22;11203;50.870;20.682;2022-08-19T12:08:56;31.40;1.00
21762;DHT22;11203;50.870;20.682;2022-08-19T12:11:23;31.40;1.00
21762;DHT22;11203;50.870;20.682;2022-08-19T12:13:49;31.50;1.00
21762;DHT22;11203;50.870;20.682;2022-08-19T12:16:27;31.50;1.00
21762;DHT22;11203;50.870;20.682;2022-08-19T12:18:55;31.60;1.00
21762;DHT22;11203;50.870;20.682;2022-08-19T12:21:26;31.50;1.00
21762;DHT22;11203;50.870;20.682;2022-08-19T12:23:57;31.50;1.00
21762;DHT22;11203;50.870;20.682;2022-08-19T12:26:25;31.60;1.00
21762;DHT22;11203;50.870;20.682;2022-08-19T12:28:53;31.60;1.00
21762;DHT22;11203;50.870;20.682;2022-08-19T12:31:20;31.70;1.00
21762;DHT22;11203;50.870;20.682;2022-08-19T12:33:47;31.70;1.00
21762;DHT22;11203;50.870;20.682;2022-08-19T12:36:14;31.70;1.00
21762;DHT22;11203;50.870;20.682;2022-08-19T12:38:41;31.70;1.00
21762;DHT22;11203;50.870;20.682;2022-08-19T12:41:12;31.70;1.00
21762;DHT22;11203;50.870;20.682;2022-08-19T12:43:39;31.80;1.00
21762;DHT22;11203;50.870;20.682;2022-08-19T12:46:07;31.80;1.00
21762;DHT22;11203;50.870;20.682;2022-08-19T12:48:34;31.90;1.00
21762;DHT22;11203;50.870;20.682;2022-08-19T12:51:06;31.80;1.00
21762;DHT22;11203;50.870;20.682;2022-08-19T12:53:33;31.90;1.00
21762;DHT22;11203;50.870;20.682;2022-08-19T12:56:00;31.90;1.00
21762;DHT22;11203;50.870;20.682;2022-08-19T12:58:27;31.80;1.00
21762;DHT22;11203;50.870;20.682;2022-08-19T13:00:54;31.80;1.00
21762;DHT22;11203;50.870;20.682;2022-08-19T13:03:20;31.80;1.00
21762;DHT22;11203;50.870;20.682;2022-08-19T13:05:50;31.80;1.00
21762;DHT22;11203;50.870;20.682;2022-08-19T13:08:16;31.80;1.00
21762;DHT22;11203;50.870;20.682;2022-08-19T13:10:42;31.90;1.00
21762;DHT22;11203;50.870;20.682;2022-08-19T13:13:09;31.90;1.00
21762;DHT22;11203;50.870;20.682;2022-08-19T13:15:38;31.90;1.00
21762;DHT22;11203;50.870;20.682;2022-08-19T13:18:08;31.90;1.00
21762;DHT22;11203;50.870;20.682;2022-08-19T13:20:37;31.90;1.00
21762;DHT22;11203;50.870;20.682;2022-08-19T13:23:06;31.90;1.00
21762;DHT22;11203;50.870;20.682;2022-08-19T13:25:33;31.90;1.00
21762;DHT22;11203;50.870;20.682;2022-08-19T13:27:59;31.90;1.00
21762;DHT22;11203;50.870;20.682;2022-08-19T13:30:26;31.90;1.00
21762;DHT22;11203;50.870;20.682;2022-08-19T13:33:10;31.90;1.00
21762;DHT22;11203;50.870;20.682;2022-08-19T13:35:38;32.00;1.00
21762;DHT22;11203;50.870;20.682;2022-08-19T13:38:05;32.00;1.00
21762;DHT22;11203;50.870;20.682;2022-08-19T13:40:32;31.90;1.00
21762;DHT22;11203;50.870;20.682;2022-08-19T13:43:00;31.90;1.00
21762;DHT22;11203;50.870;20.682;2022-08-19T13:45:28;31.90;1.00
21762;DHT22;11203;50.870;20.682;2022-08-19T13:47:56;31.90;1.00
21762;DHT22;11203;50.870;20.682;2022-08-19T13:50:25;31.90;1.00
21762;DHT22;11203;50.870;20.682;2022-08-19T13:52:54;31.80;1.00
21762;DHT22;11203;50.870;20.682;2022-08-19T13:55:21;31.90;1.00
21762;DHT22;11203;50.870;20.682;2022-08-19T13:58:00;31.90;1.00
21762;DHT22;11203;50.870;20.682;2022-08-19T14:00:34;32.00;1.00
21762;DHT22;11203;50.870;20.682;2022-08-19T14:03:02;31.90;1.00
21762;DHT22;11203;50.870;20.682;2022-08-19T14:05:30;31.90;1.00
21762;DHT22;11203;50.870;20.682;2022-08-19T14:07:56;31.90;1.00
21762;DHT22;11203;50.870;20.682;2022-08-19T14:10:24;32.00;1.00
21762;DHT22;11203;50.870;20.682;2022-08-19T14:13:01;32.00;1.00
21762;DHT22;11203;50.870;20.682;2022-08-19T14:15:28;32.00;1.00
21762;DHT22;11203;50.870;20.682;2022-08-19T14:17:55;32.00;1.00
21762;DHT22;11203;50.870;20.682;2022-08-19T14:20:22;32.00;1.00
21762;DHT22;11203;50.870;20.682;2022-08-19T14:22:49;31.90;1.00
21762;DHT22;11203;50.870;20.682;2022-08-19T14:25:21;31.90;1.00
21762;DHT22;11203;50.870;20.682;2022-08-19T14:27:49;31.90;1.00
21762;DHT22;11203;50.870;20.682;2022-08-19T14:30:26;31.90;1.00
21762;DHT22;11203;50.870;20.682;2022-08-19T14:32:56;31.90;1.00
21762;DHT22;11203;50.870;20.682;2022-08-19T14:35:24;31.90;1.00
21762;DHT22;11203;50.870;20.682;2022-08-19T14:37:52;31.90;1.00
21762;DHT22;11203;50.870;20.682;2022-08-19T14:40:25;31.90;1.00
21762;DHT22;11203;50.870;20.682;2022-08-19T14:42:58;31.90;1.00
21762;DHT22;11203;50.870;20.682;2022-08-19T14:45:31;31.80;99.90
21762;DHT22;11203;50.870;20.682;2022-08-19T14:47:58;31.80;99.90
21762;DHT22;11203;50.870;20.682;2022-08-19T14:50:26;31.80;99.90
21762;DHT22;11203;50.870;20.682;2022-08-19T14:52:59;31.80;99.90
21762;DHT22;11203;50.870;20.682;2022-08-19T14:55:31;31.80;99.90
21762;DHT22;11203;50.870;20.682;2022-08-19T14:57:58;31.70;99.90
21762;DHT22;11203;50.870;20.682;2022-08-19T15:00:25;31.70;99.90
21762;DHT22;11203;50.870;20.682;2022-08-19T15:02:52;31.60;99.90
21762;DHT22;11203;50.870;20.682;2022-08-19T15:05:22;31.60;99.90
21762;DHT22;11203;50.870;20.682;2022-08-19T15:07:48;31.50;99.90
21762;DHT22;11203;50.870;20.682;2022-08-19T15:10:15;31.50;99.90
21762;DHT22;11203;50.870;20.682;2022-08-19T15:12:41;31.50;99.90
21762;DHT22;11203;50.870;20.682;2022-08-19T15:15:13;31.50;99.90
21762;DHT22;11203;50.870;20.682;2022-08-19T15:17:41;31.50;99.90
21762;DHT22;11203;50.870;20.682;2022-08-19T15:20:09;31.40;99.90
21762;DHT22;11203;50.870;20.682;2022-08-19T15:22:37;31.30;99.90
21762;DHT22;11203;50.870;20.682;2022-08-19T15:25:06;31.30;99.90
21762;DHT22;11203;50.870;20.682;2022-08-19T15:27:33;31.30;99.90
21762;DHT22;11203;50.870;20.682;2022-08-19T15:30:00;31.20;99.90
21762;DHT22;11203;50.870;20.682;2022-08-19T15:32:26;31.20;99.90
21762;DHT22;11203;50.870;20.682;2022-08-19T15:34:53;31.20;99.90
21762;DHT22;11203;50.870;20.682;2022-08-19T15:37:20;31.10;99.90
21762;DHT22;11203;50.870;20.682;2022-08-19T15:39:50;31.10;99.90
21762;DHT22;11203;50.870;20.682;2022-08-19T15:42:16;31.00;99.90
21762;DHT22;11203;50.870;20.682;2022-08-19T15:44:42;31.00;99.90
21762;DHT22;11203;50.870;20.682;2022-08-19T15:47:08;30.90;99.90